Time;durP1;ratioP1;P1;durP2;ratioP2;P2;SDS_P1;SDS_P2;PMS_P1;PMS_P2;Temp;Humidity;BMP_temperature;BMP_pressure;BME280_temperature;BME280_humidity;BME280_pressure;Samples;Min_cycle;Max_cycle;Signal;HPM_P1;HPM_P2
2023/01/30 00:02:24;;;;;;;;;;;;;;;8.51;65.52;101773.09;7359863;19;20529;-58
2023/01/30 00:04:49;;;;;;;;;;;;;;;8.48;65.19;101769.63;7358367;19;19907;-58
2023/01/30 00:07:15;;;;;;;;;;;;;;;8.45;65.02;101767.00;7359943;19;19938;-58
2023/01/30 00:09:40;;;;;;;;;;;;;;;8.42;65.16;101769.63;7360417;19;19926;-54
2023/01/30 00:12:05;;;;;;;;;;;;;;;8.39;65.28;101762.66;7357096;19;19986;-57
2023/01/30 00:14:30;;;;;;;;;;;;;;;8.38;65.47;101771.34;7359331;19;19997;-58
2023/01/30 00:16:56;;;;;;;;;;;;;;;8.37;65.06;101767.00;7357459;19;19915;-58
2023/01/30 00:19:21;;;;;;;;;;;;;;;8.35;64.87;101755.66;7359180;19;19947;-58
2023/01/30 00:21:46;;;;;;;;;;;;;;;8.33;64.83;101757.41;7356389;19;19936;-58
2023/01/30 00:24:11;;;;;;;;;;;;;;;8.31;65.17;101759.09;7362184;19;19919;-58
2023/01/30 00:26:37;;;;;;;;;;;;;;;8.29;65.02;101761.72;7363934;19;19938;-57
2023/01/30 00:29:02;;;;;;;;;;;;;;;8.28;64.89;101756.50;7364992;19;19926;-58
2023/01/30 00:31:27;;;;;;;;;;;;;;;8.25;65.42;101765.16;7346471;19;19914;-58
2023/01/30 00:33:52;;;;;;;;;;;;;;;8.27;65.16;101757.38;7366634;19;19989;-58
2023/01/30 00:36:18;;;;;;;;;;;;;;;8.26;64.84;101756.50;7360087;19;19926;-57
2023/01/30 00:38:43;;;;;;;;;;;;;;;8.29;65.24;101760.84;7367114;19;19915;-57
2023/01/30 00:41:09;;;;;;;;;;;;;;;8.30;65.33;101762.56;7361980;19;19934;-58
2023/01/30 00:49:14;;;;;;;;;;;;;;;8.35;64.94;101760.00;7265100;19;2004505;-58
2023/01/30 00:51:39;;;;;;;;;;;;;;;8.35;64.76;101770.41;7362338;19;19982;-58
2023/01/30 00:54:04;;;;;;;;;;;;;;;8.35;64.65;101762.59;7366554;19;19923;-57
2023/01/30 00:56:29;;;;;;;;;;;;;;;8.33;64.56;101767.81;7363333;19;19923;-58
2023/01/30 00:58:55;;;;;;;;;;;;;;;8.32;64.71;101771.28;7366837;19;19942;-58
2023/01/30 01:01:20;;;;;;;;;;;;;;;8.30;64.61;101780.78;7364350;19;19952;-58
2023/01/30 01:03:45;;;;;;;;;;;;;;;8.27;64.81;101780.81;7364437;19;19929;-57
2023/01/30 01:06:10;;;;;;;;;;;;;;;8.24;64.62;101788.59;7364146;19;19923;-58
2023/01/30 01:08:36;;;;;;;;;;;;;;;8.22;64.46;101785.13;7364863;19;19982;-57
2023/01/30 01:11:01;;;;;;;;;;;;;;;8.19;64.31;101790.28;7365535;19;19991;-59
2023/01/30 01:13:26;;;;;;;;;;;;;;;8.16;64.63;101779.84;7365119;19;20792;-58
2023/01/30 01:15:52;;;;;;;;;;;;;;;8.12;64.44;101784.19;7366005;19;22098;-58
2023/01/30 01:18:17;;;;;;;;;;;;;;;8.10;64.34;101795.44;7364453;19;20702;-56
2023/01/30 01:20:42;;;;;;;;;;;;;;;8.06;64.54;101795.44;7364998;19;20386;-58
2023/01/30 01:23:08;;;;;;;;;;;;;;;8.02;64.68;101778.09;7360648;19;20546;-58
2023/01/30 01:25:34;;;;;;;;;;;;;;;7.99;64.33;101783.25;7363748;19;19919;-58
2023/01/30 01:27:59;;;;;;;;;;;;;;;7.95;64.43;101791.91;7362827;19;19925;-58
2023/01/30 01:30:24;;;;;;;;;;;;;;;7.92;64.63;101794.50;7365284;19;19936;-58
2023/01/30 01:32:49;;;;;;;;;;;;;;;7.90;64.24;101791.00;7360401;19;19926;-59
2023/01/30 01:35:15;;;;;;;;;;;;;;;7.86;64.42;101791.00;7349517;19;19923;-59
2023/01/30 01:37:40;;;;;;;;;;;;;;;7.81;64.60;101801.38;7357194;19;19922;-58
2023/01/30 01:42:50;;;;;;;;;;;;;;;7.72;64.51;101804.78;7354997;19;19933;-58
2023/01/30 01:45:22;;;;;;;;;;;;;;;7.68;64.38;101813.41;7354669;19;21134;-58
2023/01/30 01:47:50;;;;;;;;;;;;;;;7.65;64.26;101807.31;7363673;19;19914;-57
2023/01/30 01:50:19;;;;;;;;;;;;;;;7.62;64.50;101810.78;7359173;19;19990;-57
2023/01/30 01:52:45;;;;;;;;;;;;;;;7.59;64.73;101812.47;7362759;19;19935;-57
2023/01/30 01:55:11;;;;;;;;;;;;;;;7.55;64.43;101811.56;7363692;19;19978;-58
2023/01/30 01:57:38;;;;;;;;;;;;;;;7.53;64.52;101811.56;7362771;19;19926;-58
2023/01/30 02:00:10;;;;;;;;;;;;;;;7.47;64.77;101816.72;7361223;19;20530;-58
2023/01/30 02:02:35;;;;;;;;;;;;;;;7.47;64.51;101819.31;7363320;19;19929;-58
2023/01/30 02:05:01;;;;;;;;;;;;;;;7.43;64.88;101814.94;7363029;19;19926;-57
2023/01/30 02:07:38;;;;;;;;;;;;;;;7.41;64.70;101814.09;7360871;19;20006;-58
2023/01/30 02:10:05;;;;;;;;;;;;;;;7.36;64.61;101820.97;7359419;19;19930;-58
2023/01/30 02:12:31;;;;;;;;;;;;;;;7.35;64.93;101839.13;7362336;19;19945;-58
2023/01/30 02:14:57;;;;;;;;;;;;;;;7.32;65.02;101842.56;7364671;19;20397;-58
2023/01/30 02:17:23;;;;;;;;;;;;;;;7.29;65.17;101835.63;7361879;19;19935;-57
2023/01/30 02:19:54;;;;;;;;;;;;;;;7.29;65.28;101837.34;7363618;19;20487;-57
2023/01/30 02:22:38;;;;;;;;;;;;;;;7.29;65.42;101834.75;7362739;19;19922;-57
2023/01/30 02:25:12;;;;;;;;;;;;;;;7.30;65.53;101836.50;7360884;19;19943;-58
2023/01/30 02:27:53;;;;;;;;;;;;;;;7.33;65.72;101831.31;7362098;19;20626;-57
2023/01/30 02:30:21;;;;;;;;;;;;;;;7.36;65.61;101823.56;7360799;19;19929;-58
2023/01/30 02:32:55;;;;;;;;;;;;;;;7.39;65.30;101809.72;7362445;19;19923;-58
2023/01/30 02:35:25;;;;;;;;;;;;;;;7.42;65.61;101825.34;7353546;19;19922;-58
2023/01/30 02:38:01;;;;;;;;;;;;;;;7.43;65.52;101827.06;7362423;19;21146;-58
2023/01/30 02:40:29;;;;;;;;;;;;;;;7.44;65.36;101827.06;7359480;19;20591;-58
2023/01/30 02:43:03;;;;;;;;;;;;;;;7.46;65.74;101821.91;7361719;19;19945;-58
2023/01/30 02:45:33;;;;;;;;;;;;;;;7.48;65.79;101831.44;7360085;19;20603;-58
2023/01/30 02:48:18;;;;;;;;;;;;;;;7.50;65.79;101832.34;7362259;19;20359;-58
2023/01/30 02:50:46;;;;;;;;;;;;;;;7.53;65.91;101824.56;7360679;19;20814;-58
2023/01/30 02:53:12;;;;;;;;;;;;;;;7.57;65.88;101827.19;7359874;19;20561;-58
2023/01/30 02:55:39;;;;;;;;;;;;;;;7.61;65.73;101836.75;7360767;19;19918;-57
2023/01/30 02:58:04;;;;;;;;;;;;;;;7.63;65.72;101829.84;7350013;19;20777;-58
2023/01/30 03:00:41;;;;;;;;;;;;;;;7.67;65.58;101835.06;7360475;19;19921;-57
2023/01/30 03:03:25;;;;;;;;;;;;;;;7.70;65.49;101842.00;7358087;19;19957;-57
2023/01/30 03:05:51;;;;;;;;;;;;;;;7.72;65.91;101841.19;7360768;19;19930;-58
2023/01/30 03:08:24;;;;;;;;;;;;;;;7.75;65.53;101840.31;7360206;19;19922;-58
2023/01/30 03:10:54;;;;;;;;;;;;;;;7.75;65.67;101848.09;7360127;19;19936;-58
2023/01/30 03:13:45;;;;;;;;;;;;;;;7.77;65.34;101851.63;7358355;19;19932;-58
2023/01/30 03:16:11;;;;;;;;;;;;;;;7.77;65.39;101841.22;7258541;19;2004223;-58
2023/01/30 03:18:36;;;;;;;;;;;;;;;7.78;65.31;101845.53;7357741;19;19942;-58
2023/01/30 03:21:04;;;;;;;;;;;;;;;7.80;65.65;101849.00;7354171;19;19919;-58
2023/01/30 03:23:30;;;;;;;;;;;;;;;7.83;65.57;101848.19;7358160;19;19915;-58
2023/01/30 03:25:55;;;;;;;;;;;;;;;7.85;65.39;101857.72;7360373;19;19926;-58
2023/01/30 03:28:21;;;;;;;;;;;;;;;7.83;65.42;101849.06;7358295;19;19947;-58
2023/01/30 03:30:46;;;;;;;;;;;;;;;7.91;65.66;101852.59;7358862;19;19926;-58
2023/01/30 03:33:11;;;;;;;;;;;;;;;7.94;65.51;101863.00;7353847;19;19930;-58
2023/01/30 03:35:36;;;;;;;;;;;;;;;7.97;65.38;101864.75;7358224;19;19915;-58
2023/01/30 03:38:02;;;;;;;;;;;;;;;8.00;65.51;101875.16;7359204;19;19925;-57
2023/01/30 03:40:27;;;;;;;;;;;;;;;8.04;65.43;101879.53;7360205;19;19911;-57
2023/01/30 03:42:52;;;;;;;;;;;;;;;8.06;65.26;101891.72;7360197;19;20450;-58
2023/01/30 03:45:18;;;;;;;;;;;;;;;8.09;64.94;101882.16;7354646;19;19923;-56
2023/01/30 03:47:43;;;;;;;;;;;;;;;8.12;65.07;101882.19;7360633;19;20596;-57
2023/01/30 03:50:08;;;;;;;;;;;;;;;8.14;64.83;101890.88;7355178;19;20647;-57
2023/01/30 03:52:34;;;;;;;;;;;;;;;8.16;65.05;101892.63;7353050;19;20006;-59
2023/01/30 03:55:00;;;;;;;;;;;;;;;8.18;64.66;101892.63;7357416;19;19923;-58
2023/01/30 03:57:25;;;;;;;;;;;;;;;8.21;65.07;101900.44;7360985;19;19923;-57
2023/01/30 03:59:51;;;;;;;;;;;;;;;8.21;64.78;101888.34;7353752;19;20650;-58
2023/01/30 04:02:21;;;;;;;;;;;;;;;8.24;64.63;101903.06;7364817;19;19936;-58
2023/01/30 04:04:46;;;;;;;;;;;;;;;8.25;64.99;101904.81;7343369;19;19919;-58
2023/01/30 04:07:11;;;;;;;;;;;;;;;8.27;64.61;101908.31;7362058;19;19911;-58
2023/01/30 04:09:37;;;;;;;;;;;;;;;8.28;64.97;101915.25;7361374;19;19939;-57
2023/01/30 04:12:02;;;;;;;;;;;;;;;8.27;64.66;101911.78;7356973;19;19935;-56
2023/01/30 04:14:27;;;;;;;;;;;;;;;8.29;64.73;101911.78;7364422;19;19937;-58
2023/01/30 04:16:52;;;;;;;;;;;;;;;8.29;64.68;101915.25;7359110;19;19918;-57
2023/01/30 04:19:18;;;;;;;;;;;;;;;8.30;64.89;101910.91;7357693;19;19918;-58
2023/01/30 04:21:43;;;;;;;;;;;;;;;8.30;64.51;101916.13;7345404;19;19919;-58
2023/01/30 04:24:08;;;;;;;;;;;;;;;8.31;64.77;101915.25;7351619;19;19927;-58
2023/01/30 04:26:33;;;;;;;;;;;;;;;8.31;64.88;101910.03;7361107;19;19922;-58
2023/01/30 04:28:59;;;;;;;;;;;;;;;8.31;64.54;101915.25;7363457;19;20168;-58
2023/01/30 04:31:24;;;;;;;;;;;;;;;8.30;64.63;101908.31;7362891;19;19935;-57
2023/01/30 04:33:49;;;;;;;;;;;;;;;8.30;64.29;101898.78;7362566;19;19948;-58
2023/01/30 04:36:14;;;;;;;;;;;;;;;8.27;64.46;101890.09;7354640;19;19938;-58
2023/01/30 04:38:40;;;;;;;;;;;;;;;8.24;64.38;101897.88;7363792;19;19922;-57
2023/01/30 04:41:05;;;;;;;;;;;;;;;8.22;64.12;101905.69;7362656;19;20005;-58
2023/01/30 04:43:31;;;;;;;;;;;;;;;8.18;64.02;101908.25;7363122;19;19975;-58
2023/01/30 04:45:56;;;;;;;;;;;;;;;8.13;64.33;101909.94;7363751;19;19919;-58
2023/01/30 04:48:22;;;;;;;;;;;;;;;8.09;64.39;101918.59;7361818;19;19950;-58
2023/01/30 04:50:48;;;;;;;;;;;;;;;8.06;64.40;101909.91;7361876;19;19932;-58
2023/01/30 04:53:14;;;;;;;;;;;;;;;8.04;64.66;101911.63;7363735;19;19910;-57
2023/01/30 04:55:39;;;;;;;;;;;;;;;8.02;64.57;101912.47;7361862;19;19943;-58
2023/01/30 04:58:05;;;;;;;;;;;;;;;8.01;64.67;101916.81;7361102;19;20248;-58
2023/01/30 05:00:30;;;;;;;;;;;;;;;8.02;64.50;101917.69;7361750;19;19918;-58
2023/01/30 05:02:56;;;;;;;;;;;;;;;8.01;64.81;101915.94;7363281;19;19926;-58
2023/01/30 05:05:25;;;;;;;;;;;;;;;8.00;64.94;101912.44;7360880;19;19911;-58
2023/01/30 05:07:50;;;;;;;;;;;;;;;8.01;64.74;101919.41;7360746;19;19929;-57
2023/01/30 05:10:16;;;;;;;;;;;;;;;8.01;64.67;101922.03;7361038;19;20514;-58
2023/01/30 05:12:41;;;;;;;;;;;;;;;8.02;64.77;101922.88;7360130;19;20328;-58
2023/01/30 05:15:07;;;;;;;;;;;;;;;8.03;65.10;101924.63;7362305;19;19923;-57
2023/01/30 05:17:32;;;;;;;;;;;;;;;8.03;65.20;101927.22;7356910;19;19915;-58
2023/01/30 05:19:58;;;;;;;;;;;;;;;8.04;64.92;101921.16;7363955;19;19919;-57
2023/01/30 05:22:23;;;;;;;;;;;;;;;8.03;64.83;101925.50;7356306;19;20426;-58
2023/01/30 05:24:48;;;;;;;;;;;;;;;8.03;64.68;101919.41;7361731;19;19926;-57
2023/01/30 05:27:13;;;;;;;;;;;;;;;8.01;64.96;101919.41;7362529;19;20546;-58
2023/01/30 05:29:39;;;;;;;;;;;;;;;7.99;64.77;101921.13;7360665;19;19922;-58
2023/01/30 05:32:04;;;;;;;;;;;;;;;7.97;64.73;101917.66;7360135;19;20048;-58
2023/01/30 05:34:29;;;;;;;;;;;;;;;7.96;65.02;101918.50;7359406;19;19922;-58
2023/01/30 05:36:54;;;;;;;;;;;;;;;7.94;64.91;101915.00;7362455;19;19956;-58
2023/01/30 05:39:20;;;;;;;;;;;;;;;7.93;65.09;101908.06;7359241;19;19918;-57
2023/01/30 05:41:45;;;;;;;;;;;;;;;7.91;65.11;101915.00;7361071;19;19918;-58
2023/01/30 05:44:10;;;;;;;;;;;;;;;7.89;65.08;101914.09;7360690;19;19930;-58
2023/01/30 05:46:35;;;;;;;;;;;;;;;7.87;64.72;101918.44;7359955;19;19959;-57
2023/01/30 05:49:03;;;;;;;;;;;;;;;7.85;65.06;101914.94;7362319;19;19923;-57
2023/01/30 05:51:28;;;;;;;;;;;;;;;7.83;64.95;101931.41;7360737;19;20829;-58
2023/01/30 05:53:53;;;;;;;;;;;;;;;7.80;64.88;101932.22;7359055;19;19926;-58
2023/01/30 05:56:19;;;;;;;;;;;;;;;7.77;65.35;101933.09;7357303;19;20769;-58
2023/01/30 05:58:54;;;;;;;;;;;;;;;7.76;65.07;101941.75;7359868;19;19935;-58
2023/01/30 06:01:19;;;;;;;;;;;;;;;7.73;65.29;101931.31;7359643;19;20734;-58
2023/01/30 06:03:45;;;;;;;;;;;;;;;7.72;65.23;101923.50;7361524;19;19974;-59
2023/01/30 06:06:11;;;;;;;;;;;;;;;7.71;65.42;101926.97;7361761;19;19915;-58
2023/01/30 06:08:36;;;;;;;;;;;;;;;7.69;65.32;101926.94;7360356;19;19925;-57
2023/01/30 06:11:02;;;;;;;;;;;;;;;7.67;65.02;101930.41;7362728;19;19923;-58
2023/01/30 06:13:28;;;;;;;;;;;;;;;7.65;65.34;101934.69;7360321;19;19930;-58
2023/01/30 06:15:53;;;;;;;;;;;;;;;7.63;65.02;101944.22;7358633;19;19923;-57
2023/01/30 06:18:18;;;;;;;;;;;;;;;7.60;65.37;101942.44;7359007;19;19931;-58
2023/01/30 06:20:48;;;;;;;;;;;;;;;7.57;65.28;101936.38;7359316;19;20344;-58
2023/01/30 06:23:13;;;;;;;;;;;;;;;7.52;65.18;101942.38;7355692;19;19923;-56
2023/01/30 06:25:41;;;;;;;;;;;;;;;7.50;65.32;101944.13;7360473;19;19958;-58
2023/01/30 06:28:06;;;;;;;;;;;;;;;7.47;65.04;101938.88;7358210;19;20011;-58
2023/01/30 06:30:31;;;;;;;;;;;;;;;7.45;65.23;101942.28;7360038;19;20014;-58
2023/01/30 06:32:57;;;;;;;;;;;;;;;7.40;65.09;101939.69;7360533;19;20360;-58
2023/01/30 06:35:22;;;;;;;;;;;;;;;7.37;65.07;101942.25;7359477;19;19930;-56
2023/01/30 06:37:47;;;;;;;;;;;;;;;7.34;65.19;101937.00;7359193;19;19923;-57
2023/01/30 06:40:12;;;;;;;;;;;;;;;7.33;65.20;101943.06;7359214;19;19919;-58
2023/01/30 06:42:42;;;;;;;;;;;;;;;7.29;65.33;101955.13;7359473;19;19949;-57
2023/01/30 06:45:08;;;;;;;;;;;;;;;7.27;65.41;101946.47;7358442;19;20318;-57
2023/01/30 06:47:33;;;;;;;;;;;;;;;7.24;65.56;101956.81;7357234;19;19982;-58
2023/01/30 06:49:59;;;;;;;;;;;;;;;7.23;65.44;101959.41;7358962;19;20815;-58
2023/01/30 06:52:24;;;;;;;;;;;;;;;7.21;65.34;101961.13;7360413;19;22047;-58
2023/01/30 06:54:49;;;;;;;;;;;;;;;7.20;65.34;101967.19;7358988;19;19915;-57
2023/01/30 06:57:14;;;;;;;;;;;;;;;7.16;65.60;101968.84;7358274;19;19919;-58
2023/01/30 06:59:40;;;;;;;;;;;;;;;7.14;65.61;101967.94;7348590;19;19938;-58
2023/01/30 07:02:05;;;;;;;;;;;;;;;7.12;65.52;101961.00;7360678;19;19998;-58
2023/01/30 07:04:30;;;;;;;;;;;;;;;7.09;65.44;101963.56;7360265;19;19943;-58
2023/01/30 07:06:56;;;;;;;;;;;;;;;7.07;65.30;101963.53;7359065;19;20263;-58
2023/01/30 07:09:21;;;;;;;;;;;;;;;7.03;65.14;101966.94;7358962;19;19915;-58
2023/01/30 07:11:47;;;;;;;;;;;;;;;7.01;65.48;101969.53;7358697;19;19926;-58
2023/01/30 07:14:12;;;;;;;;;;;;;;;6.98;65.79;101969.50;7360187;19;19922;-58
2023/01/30 07:16:38;;;;;;;;;;;;;;;6.95;65.40;101974.66;7356741;19;19958;-58
2023/01/30 07:19:03;;;;;;;;;;;;;;;6.93;65.46;101985.88;7357764;19;19994;-56
2023/01/30 07:21:28;;;;;;;;;;;;;;;6.89;65.71;101990.16;7358292;19;19927;-58
2023/01/30 07:23:53;;;;;;;;;;;;;;;6.86;65.79;101990.13;7360465;19;19927;-58
2023/01/30 07:26:19;;;;;;;;;;;;;;;6.82;65.53;101988.34;7354173;19;19915;-58
2023/01/30 07:28:44;;;;;;;;;;;;;;;6.79;65.29;101990.88;7357813;19;19915;-57
2023/01/30 07:31:09;;;;;;;;;;;;;;;6.76;65.43;101985.66;7357498;19;19922;-58
2023/01/30 07:33:34;;;;;;;;;;;;;;;6.74;65.64;101992.53;7355075;19;19919;-58
2023/01/30 07:36:00;;;;;;;;;;;;;;;6.72;65.46;101996.84;7359225;19;20379;-56
2023/01/30 07:38:25;;;;;;;;;;;;;;;6.68;65.53;101989.88;7357781;19;19919;-58
2023/01/30 07:40:50;;;;;;;;;;;;;;;6.66;65.82;101991.56;7359325;19;19933;-58
2023/01/30 07:43:16;;;;;;;;;;;;;;;6.64;65.63;102001.94;7357552;19;19907;-58
2023/01/30 07:45:42;;;;;;;;;;;;;;;6.62;65.72;102006.22;7358987;19;19918;-57
2023/01/30 07:48:09;;;;;;;;;;;;;;;6.61;65.76;102019.19;7344531;19;19918;-57
2023/01/30 07:50:34;;;;;;;;;;;;;;;6.60;65.89;102022.63;7353057;19;20323;-58
2023/01/30 07:53:01;;;;;;;;;;;;;;;6.59;66.14;102023.47;7359265;19;19927;-58
2023/01/30 07:55:26;;;;;;;;;;;;;;;6.60;66.52;102035.63;7357324;19;19934;-58
2023/01/30 07:57:52;;;;;;;;;;;;;;;6.60;66.52;102035.63;7359749;19;19918;-58
2023/01/30 08:00:17;;;;;;;;;;;;;;;6.61;66.21;102039.94;7358667;19;19919;-57
2023/01/30 08:02:42;;;;;;;;;;;;;;;6.62;66.67;102034.78;7359463;19;19911;-57
2023/01/30 08:05:08;;;;;;;;;;;;;;;6.64;66.78;102042.56;7357617;19;19926;-58
2023/01/30 08:07:33;;;;;;;;;;;;;;;6.67;66.43;102040.03;7358651;19;20308;-58
2023/01/30 08:09:58;;;;;;;;;;;;;;;6.69;66.89;102039.22;7361217;19;19927;-57
2023/01/30 08:12:23;;;;;;;;;;;;;;;6.72;66.69;102038.38;7361628;19;21176;-58
2023/01/30 08:14:49;;;;;;;;;;;;;;;6.74;66.85;102037.56;7360081;19;19934;-58
2023/01/30 08:17:14;;;;;;;;;;;;;;;6.78;66.59;102038.47;7357484;19;19918;-57
2023/01/30 08:19:39;;;;;;;;;;;;;;;6.80;66.90;102036.78;7360455;19;20764;-58
2023/01/30 08:22:04;;;;;;;;;;;;;;;6.82;66.96;102044.59;7359585;19;20272;-58
2023/01/30 08:24:30;;;;;;;;;;;;;;;6.84;66.69;102041.13;7355821;19;19926;-58
2023/01/30 08:26:55;;;;;;;;;;;;;;;6.86;66.67;102042.06;7357330;19;19922;-58
2023/01/30 08:29:20;;;;;;;;;;;;;;;6.87;66.71;102035.13;7359790;19;19915;-57
2023/01/30 08:31:45;;;;;;;;;;;;;;;6.89;66.81;102041.22;7358153;19;19926;-58
2023/01/30 08:34:14;;;;;;;;;;;;;;;6.90;66.88;102041.25;7350996;19;19962;-59
2023/01/30 08:36:39;;;;;;;;;;;;;;;6.91;66.66;102035.19;7352130;19;19957;-57
2023/01/30 08:39:04;;;;;;;;;;;;;;;6.92;66.81;102036.94;7359939;19;19997;-57
2023/01/30 08:41:29;;;;;;;;;;;;;;;6.94;66.90;102039.53;7357988;19;19910;-58
2023/01/30 08:43:55;;;;;;;;;;;;;;;6.94;67.10;102050.81;7359939;19;19919;-56
2023/01/30 08:46:20;;;;;;;;;;;;;;;6.95;66.58;102052.56;7364328;19;20010;-57
2023/01/30 08:48:46;;;;;;;;;;;;;;;6.96;66.88;102064.69;7362953;19;19935;-57
2023/01/30 08:51:11;;;;;;;;;;;;;;;6.97;67.05;102065.56;7363067;19;20776;-58
2023/01/30 08:53:36;;;;;;;;;;;;;;;6.98;66.75;102072.50;7359998;19;20316;-58
2023/01/30 08:56:01;;;;;;;;;;;;;;;6.98;66.59;102069.91;7358591;19;19922;-58
2023/01/30 08:58:27;;;;;;;;;;;;;;;6.99;66.95;102080.34;7344855;19;19922;-58
2023/01/30 09:00:52;;;;;;;;;;;;;;;6.99;66.71;102085.53;7358034;19;20652;-57
2023/01/30 09:03:18;;;;;;;;;;;;;;;7.00;67.07;102089.88;7360909;19;20410;-58
2023/01/30 09:05:43;;;;;;;;;;;;;;;7.02;67.07;102093.34;7365285;19;19990;-57
2023/01/30 09:08:08;;;;;;;;;;;;;;;7.02;67.05;102088.16;7362230;19;20371;-57
2023/01/30 09:10:34;;;;;;;;;;;;;;;7.02;66.89;102090.75;7364474;19;19927;-58
2023/01/30 09:12:59;;;;;;;;;;;;;;;7.04;66.80;102082.97;7365995;19;19926;-58
2023/01/30 09:15:24;;;;;;;;;;;;;;;7.03;66.90;102082.09;7366869;19;20410;-58
2023/01/30 09:17:53;;;;;;;;;;;;;;;7.03;67.05;102069.13;7362000;19;19982;-58
2023/01/30 09:20:19;;;;;;;;;;;;;;;7.02;66.74;102066.50;7364923;19;21398;-58
2023/01/30 09:22:44;;;;;;;;;;;;;;;7.01;66.94;102070.84;7362128;19;19934;-58
2023/01/30 09:25:10;;;;;;;;;;;;;;;7.01;67.02;102077.75;7367377;19;19919;-58
2023/01/30 09:27:35;;;;;;;;;;;;;;;7.00;67.11;102082.06;7361060;19;19927;-58
2023/01/30 09:30:01;;;;;;;;;;;;;;;6.99;66.85;102093.31;7365514;19;19918;-58
2023/01/30 09:32:26;;;;;;;;;;;;;;;6.99;66.95;102095.91;7361506;19;19982;-58
2023/01/30 09:34:51;;;;;;;;;;;;;;;6.99;66.65;102095.03;7360897;19;19929;-58
2023/01/30 09:37:17;;;;;;;;;;;;;;;6.96;66.75;102101.06;7364272;19;19935;-57
2023/01/30 09:39:42;;;;;;;;;;;;;;;6.96;66.76;102105.38;7360302;19;19914;-57
2023/01/30 09:42:07;;;;;;;;;;;;;;;6.97;67.01;102112.31;7363740;19;19982;-58
2023/01/30 09:44:39;;;;;;;;;;;;;;;6.98;67.32;102111.47;7361134;19;19918;-58
2023/01/30 09:47:23;;;;;;;;;;;;;;;6.99;67.22;102116.69;7363376;19;19930;-58
2023/01/30 09:49:51;;;;;;;;;;;;;;;7.02;67.18;102113.25;7362653;19;19919;-58
2023/01/30 09:52:25;;;;;;;;;;;;;;;7.06;67.23;102119.38;7363334;19;19930;-58
2023/01/30 09:54:52;;;;;;;;;;;;;;;7.08;67.53;102115.94;7361849;19;19914;-58
2023/01/30 09:57:20;;;;;;;;;;;;;;;7.11;67.02;102122.91;7361556;19;20834;-57
2023/01/30 09:59:51;;;;;;;;;;;;;;;7.12;67.23;102129.84;7360059;19;19911;-58
2023/01/30 10:02:28;;;;;;;;;;;;;;;7.14;67.43;102130.72;7361150;19;19935;-58
2023/01/30 10:04:55;;;;;;;;;;;;;;;7.15;67.18;102132.50;7363970;19;19915;-58
2023/01/30 10:07:23;;;;;;;;;;;;;;;7.17;67.61;102146.38;7363667;19;19919;-58
2023/01/30 10:09:49;;;;;;;;;;;;;;;7.18;67.38;102149.00;7358516;19;19919;-57
2023/01/30 10:12:23;;;;;;;;;;;;;;;7.21;67.68;102153.38;7349112;19;19931;-57
2023/01/30 10:14:55;;;;;;;;;;;;;;;7.24;67.72;102163.78;7358485;19;19919;-57
2023/01/30 10:17:20;;;;;;;;;;;;;;;7.26;67.67;102164.69;7365754;19;19922;-57
2023/01/30 10:20:00;;;;;;;;;;;;;;;7.29;67.30;102154.34;7360191;19;21231;-57
2023/01/30 10:22:44;;;;;;;;;;;;;;;7.32;67.39;102157.00;7361020;19;19953;-57
2023/01/30 10:25:31;;;;;;;;;;;;;;;7.34;67.28;102160.47;7359823;19;19933;-58
2023/01/30 10:28:09;;;;;;;;;;;;;;;7.38;67.26;102171.78;7360631;19;19928;-58
2023/01/30 10:30:34;;;;;;;;;;;;;;;7.40;67.67;102157.97;7358566;19;19926;-58
2023/01/30 10:33:25;;;;;;;;;;;;;;;7.44;67.63;102161.47;7362478;19;20353;-57
2023/01/30 10:36:02;;;;;;;;;;;;;;;7.47;67.68;102153.72;7255118;19;2004609;-58
2023/01/30 10:38:31;;;;;;;;;;;;;;;7.51;67.40;102156.38;7339903;19;20040;-58
2023/01/30 10:40:59;;;;;;;;;;;;;;;7.53;67.59;102149.47;7358587;19;19927;-57
2023/01/30 10:43:31;;;;;;;;;;;;;;;7.58;67.85;102154.72;7359823;19;19934;-58
2023/01/30 10:46:02;;;;;;;;;;;;;;;7.62;67.97;102160.84;7363896;19;19922;-58
2023/01/30 10:48:30;;;;;;;;;;;;;;;7.71;68.08;102158.38;7357042;19;20468;-57
2023/01/30 10:50:58;;;;;;;;;;;;;;;7.83;68.65;102150.72;7359080;19;19934;-57
2023/01/30 10:53:27;;;;;;;;;;;;;;;7.96;68.33;102157.81;7359434;19;19919;-57
2023/01/30 10:56:02;;;;;;;;;;;;;;;8.06;68.27;102157.06;7358620;19;19952;-58
2023/01/30 10:58:33;;;;;;;;;;;;;;;8.16;67.94;102160.63;7359681;19;20541;-57
2023/01/30 11:01:00;;;;;;;;;;;;;;;8.18;67.55;102156.31;7358150;19;20269;-58
2023/01/30 11:03:28;;;;;;;;;;;;;;;8.24;67.76;102160.69;7361437;19;19925;-58
2023/01/30 11:06:02;;;;;;;;;;;;;;;8.28;67.50;102159.88;7360945;19;20446;-58
2023/01/30 11:08:29;;;;;;;;;;;;;;;8.36;67.64;102159.94;7359568;19;20370;-58
2023/01/30 11:10:55;;;;;;;;;;;;;;;8.41;67.39;102155.69;7361280;19;20279;-58
2023/01/30 11:13:23;;;;;;;;;;;;;;;8.43;67.08;102165.28;7357743;19;20712;-58
2023/01/30 11:15:50;;;;;;;;;;;;;;;8.39;67.32;102147.88;7360055;19;19910;-58
2023/01/30 11:18:16;;;;;;;;;;;;;;;8.41;67.16;102140.94;7360657;19;20332;-58
2023/01/30 11:20:44;;;;;;;;;;;;;;;8.52;67.38;102154.94;7361754;19;19938;-58
2023/01/30 11:23:29;;;;;;;;;;;;;;;8.57;67.15;102157.59;7358420;19;19915;-58
2023/01/30 11:25:56;;;;;;;;;;;;;;;8.61;66.98;102148.94;7358049;19;19988;-57
2023/01/30 11:28:21;;;;;;;;;;;;;;;8.65;67.14;102161.13;7359881;19;19931;-57
2023/01/30 11:30:55;;;;;;;;;;;;;;;8.69;67.07;102159.44;7358717;19;19914;-57
2023/01/30 11:33:23;;;;;;;;;;;;;;;8.74;67.17;102168.16;7362282;19;19919;-57
2023/01/30 11:35:54;;;;;;;;;;;;;;;8.77;66.73;102152.56;7360897;19;19930;-58
2023/01/30 11:38:24;;;;;;;;;;;;;;;8.79;66.94;102164.72;7362628;19;19946;-58
2023/01/30 11:40:59;;;;;;;;;;;;;;;8.87;67.32;102159.59;7358387;19;19922;-57
2023/01/30 11:43:27;;;;;;;;;;;;;;;8.97;67.30;102158.78;7361066;19;19915;-58
2023/01/30 11:45:52;;;;;;;;;;;;;;;9.14;68.00;102158.03;7356746;19;19953;-58
2023/01/30 11:48:19;;;;;;;;;;;;;;;9.39;69.11;102139.06;7356156;19;19915;-56
2023/01/30 11:50:46;;;;;;;;;;;;;;;9.72;69.44;102156.59;7359549;19;19929;-58
2023/01/30 11:53:33;;;;;;;;;;;;;;;10.18;69.73;102158.47;7357545;19;19944;-58
2023/01/30 11:56:02;;;;;;;;;;;;;;;10.63;69.30;102160.31;7255190;19;2004116;-58
2023/01/30 11:58:32;;;;;;;;;;;;;;;11.02;69.20;102158.56;7349034;19;19918;-58
2023/01/30 12:00:58;;;;;;;;;;;;;;;11.47;67.90;102165.44;7356893;19;19926;-59
2023/01/30 12:03:24;;;;;;;;;;;;;;;11.77;66.91;102150.53;7360352;19;21095;-58
2023/01/30 12:05:50;;;;;;;;;;;;;;;11.99;66.54;102157.41;7354850;19;20639;-58
2023/01/30 12:08:15;;;;;;;;;;;;;;;12.17;64.86;102151.22;7354553;19;20001;-58
2023/01/30 12:10:44;;;;;;;;;;;;;;;12.27;63.30;102152.03;7356366;19;19996;-58
2023/01/30 12:13:17;;;;;;;;;;;;;;;12.23;62.93;102155.53;7358662;19;20435;-57
2023/01/30 12:15:44;;;;;;;;;;;;;;;12.18;62.68;102159.06;7361049;19;19932;-58
2023/01/30 12:18:15;;;;;;;;;;;;;;;12.22;62.92;102159.06;7355122;19;19923;-58
2023/01/30 12:20:40;;;;;;;;;;;;;;;12.36;63.14;102147.56;7362920;19;19926;-58
2023/01/30 12:23:17;;;;;;;;;;;;;;;12.56;63.77;102155.28;7368099;19;21762;-56
2023/01/30 12:25:43;;;;;;;;;;;;;;;12.83;63.73;102148.97;7366150;19;19923;-57
2023/01/30 12:28:21;;;;;;;;;;;;;;;13.12;63.93;102151.28;7367293;19;21754;-58
2023/01/30 12:30:55;;;;;;;;;;;;;;;13.47;63.67;102142.22;7368275;19;19918;-58
2023/01/30 12:33:21;;;;;;;;;;;;;;;13.77;63.00;102141.84;7365280;19;19929;-58
2023/01/30 12:35:59;;;;;;;;;;;;;;;14.03;62.46;102143.25;7366071;19;19942;-58
2023/01/30 12:38:44;;;;;;;;;;;;;;;14.30;61.87;102142.00;7358542;19;19999;-58
2023/01/30 12:41:19;;;;;;;;;;;;;;;14.61;60.51;102139.78;7363417;19;19922;-58
2023/01/30 12:43:50;;;;;;;;;;;;;;;14.77;60.41;102143.88;7363158;19;19922;-57
2023/01/30 12:46:37;;;;;;;;;;;;;;;14.92;59.63;102134.00;7364212;19;19914;-59
2023/01/30 12:49:15;;;;;;;;;;;;;;;15.05;59.50;102133.75;7364431;19;19935;-58
2023/01/30 12:52:06;;;;;;;;;;;;;;;15.18;58.52;102133.50;7365373;19;19926;-58
2023/01/30 12:54:34;;;;;;;;;;;;;;;15.28;58.90;102130.66;7262624;19;2004510;-58
2023/01/30 12:57:03;;;;;;;;;;;;;;;15.42;57.97;102111.97;7367402;19;19925;-58